createdAt,value
2019-03-17T00:00:34.678Z,935.54
2019-03-17T00:01:34.584Z,935.55
2019-03-17T00:02:34.480Z,935.61
2019-03-17T00:03:34.398Z,935.63
2019-03-17T00:04:34.282Z,935.66
2019-03-17T00:05:34.185Z,935.57
2019-03-17T00:06:34.082Z,935.63
2019-03-17T00:07:33.986Z,935.69
2019-03-17T00:08:33.904Z,935.64
2019-03-17T00:09:33.785Z,935.54
2019-03-17T00:10:33.692Z,935.47
2019-03-17T00:11:33.598Z,935.57
2019-03-17T00:12:33.488Z,935.53
2019-03-17T00:13:33.404Z,935.54
2019-03-17T00:14:33.291Z,935.54
2019-03-17T00:15:33.191Z,935.50
2019-03-17T00:16:33.088Z,935.57
2019-03-17T00:17:32.991Z,935.43
2019-03-17T00:18:32.909Z,935.46
2019-03-17T00:19:32.798Z,935.42
2019-03-17T00:20:32.692Z,935.45
2019-03-17T00:21:32.592Z,935.43
2019-03-17T00:22:32.511Z,935.41
2019-03-17T00:23:32.408Z,935.42
2019-03-17T00:24:32.295Z,935.35
2019-03-17T00:25:32.198Z,935.33
2019-03-17T00:26:32.097Z,935.36
2019-03-17T00:27:31.996Z,935.38
2019-03-17T00:28:31.914Z,935.37
2019-03-17T00:29:31.800Z,935.45
2019-03-17T00:30:31.697Z,935.37
2019-03-17T00:31:31.598Z,935.41
2019-03-17T00:32:31.499Z,935.39
2019-03-17T00:33:31.416Z,935.34
2019-03-17T00:34:43.242Z,935.37
2019-03-17T00:35:31.200Z,935.27
2019-03-17T00:36:31.106Z,935.33
2019-03-17T00:37:31.002Z,935.29
2019-03-17T00:38:30.971Z,935.37
2019-03-17T00:39:30.808Z,935.30
2019-03-17T00:40:30.705Z,935.37
2019-03-17T00:41:31.783Z,935.36
2019-03-17T00:42:30.518Z,935.30
2019-03-17T00:43:30.425Z,935.25
2019-03-17T00:44:30.305Z,935.25
2019-03-17T00:45:30.207Z,935.28
2019-03-17T00:46:30.113Z,935.20
2019-03-17T00:47:30.014Z,935.13
2019-03-17T00:48:29.926Z,935.14
2019-03-17T00:49:29.811Z,935.14
2019-03-17T00:50:29.714Z,935.10
2019-03-17T00:51:29.614Z,935.13
2019-03-17T00:52:29.513Z,935.05
2019-03-17T00:53:29.431Z,935.09
2019-03-17T00:54:29.316Z,934.98
2019-03-17T00:55:29.218Z,934.95
2019-03-17T00:56:29.128Z,934.98
2019-03-17T00:57:29.016Z,934.96
2019-03-17T00:58:28.943Z,934.96
2019-03-17T00:59:28.822Z,934.99
2019-03-17T01:00:28.719Z,934.91
2019-03-17T01:01:28.619Z,934.84
2019-03-17T01:02:28.521Z,934.81
2019-03-17T01:03:28.421Z,934.88
2019-03-17T01:04:28.342Z,934.84
2019-03-17T01:05:31.022Z,934.86
2019-03-17T01:06:28.127Z,934.85
2019-03-17T01:07:28.022Z,934.83
2019-03-17T01:08:27.959Z,934.80
2019-03-17T01:09:27.839Z,934.74
2019-03-17T01:10:27.725Z,934.78
2019-03-17T01:11:27.625Z,934.83
2019-03-17T01:12:27.525Z,934.75
2019-03-17T01:13:27.429Z,934.86
2019-03-17T01:14:27.344Z,934.80
2019-03-17T01:15:27.501Z,934.73
2019-03-17T01:16:27.131Z,934.80
2019-03-17T01:17:27.035Z,934.78
2019-03-17T01:18:26.971Z,934.68
2019-03-17T01:19:26.847Z,934.77
2019-03-17T01:20:26.731Z,934.72
2019-03-17T01:21:26.631Z,934.76
2019-03-17T01:22:26.538Z,934.71
2019-03-17T01:23:26.436Z,934.75
2019-03-17T01:24:26.354Z,934.78
2019-03-17T01:25:26.236Z,934.77
2019-03-17T01:26:26.138Z,934.75
2019-03-17T01:27:26.048Z,934.80
2019-03-17T01:28:25.939Z,934.75
2019-03-17T01:29:25.966Z,934.80
2019-03-17T01:30:25.747Z,934.75
2019-03-17T01:31:25.643Z,934.75
2019-03-17T01:32:25.544Z,934.77
2019-03-17T01:33:25.443Z,934.73
2019-03-17T01:34:25.366Z,934.72
2019-03-17T01:35:25.249Z,934.70
2019-03-17T01:36:25.254Z,934.65
2019-03-17T01:37:25.050Z,934.59
2019-03-17T01:38:24.951Z,934.69
2019-03-17T01:39:24.867Z,934.67
2019-03-17T01:40:24.752Z,934.72
2019-03-17T01:41:24.654Z,934.69
2019-03-17T01:42:24.552Z,934.74
2019-03-17T01:43:24.562Z,934.69
2019-03-17T01:44:24.370Z,934.72
2019-03-17T01:45:24.259Z,934.68
2019-03-17T01:46:24.172Z,934.57
2019-03-17T01:47:24.058Z,934.61
2019-03-17T01:48:23.958Z,934.58
2019-03-17T01:49:23.880Z,934.59
2019-03-17T01:50:23.864Z,934.55
2019-03-17T01:51:23.669Z,934.57
2019-03-17T01:52:23.562Z,934.60
2019-03-17T01:53:23.466Z,934.59
2019-03-17T01:54:23.379Z,934.56
2019-03-17T01:55:23.267Z,934.55
2019-03-17T01:56:23.165Z,934.56
2019-03-17T01:57:23.173Z,934.59
2019-03-17T01:58:22.973Z,934.48
2019-03-17T01:59:22.885Z,934.57
2019-03-17T02:00:22.772Z,934.51
2019-03-17T02:01:22.670Z,934.56
2019-03-17T02:02:22.573Z,934.49
2019-03-17T02:03:22.473Z,934.53
2019-03-17T02:04:22.513Z,934.46
2019-03-17T02:05:22.693Z,934.60
2019-03-17T02:06:22.177Z,934.50
2019-03-17T02:07:22.077Z,934.51
2019-03-17T02:08:21.980Z,934.42
2019-03-17T02:09:21.895Z,934.46
2019-03-17T02:10:21.781Z,934.50
2019-03-17T02:11:21.792Z,934.40
2019-03-17T02:12:21.578Z,934.38
2019-03-17T02:13:21.482Z,934.43
2019-03-17T02:14:21.407Z,934.48
2019-03-17T02:15:21.283Z,934.39
2019-03-17T02:16:21.185Z,934.38
2019-03-17T02:17:21.090Z,934.43
2019-03-17T02:18:21.096Z,934.42
2019-03-17T02:19:20.904Z,934.43
2019-03-17T02:20:20.787Z,934.42
2019-03-17T02:21:20.689Z,934.38
2019-03-17T02:22:22.225Z,934.40
2019-03-17T02:23:20.490Z,934.34
2019-03-17T02:24:20.406Z,934.37
2019-03-17T02:25:20.398Z,934.33
2019-03-17T02:26:20.195Z,934.37
2019-03-17T02:27:20.096Z,934.36
2019-03-17T02:28:20.005Z,934.34
2019-03-17T02:29:19.914Z,934.33
2019-03-17T02:30:19.795Z,934.29
2019-03-17T02:31:19.695Z,934.27
2019-03-17T02:32:19.706Z,934.23
2019-03-17T02:33:19.498Z,934.24
2019-03-17T02:34:19.420Z,934.26
2019-03-17T02:35:19.301Z,934.21
2019-03-17T02:36:19.204Z,934.20
2019-03-17T02:37:19.111Z,934.18
2019-03-17T02:38:19.005Z,934.15
2019-03-17T02:39:18.921Z,934.16
2019-03-17T02:40:18.803Z,934.11
2019-03-17T02:41:18.701Z,934.11
2019-03-17T02:42:18.612Z,934.12
2019-03-17T02:43:18.507Z,934.10
2019-03-17T02:44:18.418Z,934.15
2019-03-17T02:45:18.304Z,934.08
2019-03-17T02:46:18.310Z,934.07
2019-03-17T02:47:18.105Z,934.12
2019-03-17T02:48:18.006Z,934.05
2019-03-17T02:49:17.915Z,934.00
2019-03-17T02:50:17.829Z,934.00
2019-03-17T02:51:17.708Z,934.08
2019-03-17T02:52:17.754Z,933.97
2019-03-17T02:53:17.509Z,934.04
2019-03-17T02:54:17.409Z,933.96
2019-03-17T02:55:17.356Z,933.97
2019-03-17T02:56:17.212Z,934.05
2019-03-17T02:57:17.152Z,934.09
2019-03-17T02:58:17.008Z,934.08
2019-03-17T02:59:16.922Z,934.08
2019-03-17T03:00:18.697Z,934.09
2019-03-17T03:01:16.807Z,934.02
2019-03-17T03:02:16.612Z,934.05
2019-03-17T03:03:16.512Z,934.01
2019-03-17T03:04:16.411Z,934.12
2019-03-17T03:05:16.329Z,934.09
2019-03-17T03:06:16.214Z,934.01
2019-03-17T03:07:16.116Z,934.07
2019-03-17T03:08:16.010Z,934.00
2019-03-17T03:09:15.919Z,934.08
2019-03-17T03:10:15.827Z,934.03
2019-03-17T03:11:15.714Z,934.04
2019-03-17T03:12:15.611Z,934.02
2019-03-17T03:13:15.511Z,933.98
2019-03-17T03:14:15.413Z,933.98
2019-03-17T03:15:15.328Z,933.95
2019-03-17T03:16:15.212Z,933.96
2019-03-17T03:17:15.110Z,934.00
2019-03-17T03:18:15.013Z,933.95
2019-03-17T03:19:14.911Z,933.94
2019-03-17T03:20:14.834Z,933.92
2019-03-17T03:21:14.709Z,933.95
2019-03-17T03:22:14.662Z,933.90
2019-03-17T03:23:14.509Z,933.94
2019-03-17T03:24:14.412Z,933.90
2019-03-17T03:25:14.333Z,933.88
2019-03-17T03:26:14.209Z,933.87
2019-03-17T03:27:14.112Z,933.89
2019-03-17T03:28:14.009Z,933.89
2019-03-17T03:29:13.914Z,933.93
2019-03-17T03:30:13.842Z,933.88
2019-03-17T03:31:13.711Z,933.81
2019-03-17T03:32:13.626Z,933.79
2019-03-17T03:33:13.509Z,933.85
2019-03-17T03:34:13.407Z,933.86
2019-03-17T03:35:13.346Z,933.88
2019-03-17T03:36:13.226Z,933.85
2019-03-17T03:37:13.106Z,933.86
2019-03-17T03:38:13.008Z,933.81
2019-03-17T03:39:12.906Z,933.77
2019-03-17T03:40:12.827Z,933.83
2019-03-17T03:41:12.705Z,933.83
2019-03-17T03:42:12.606Z,933.79
2019-03-17T03:43:12.511Z,933.76
2019-03-17T03:44:12.421Z,933.78
2019-03-17T03:45:12.318Z,933.82
2019-03-17T03:46:12.206Z,933.73
2019-03-17T03:47:12.114Z,933.67
2019-03-17T03:48:12.063Z,933.65
2019-03-17T03:49:11.908Z,933.66
2019-03-17T03:50:11.817Z,933.69
2019-03-17T03:51:11.697Z,933.73
2019-03-17T03:52:11.601Z,933.72
2019-03-17T03:53:11.494Z,933.67
2019-03-17T03:54:11.397Z,933.64
2019-03-17T03:55:11.309Z,933.69
2019-03-17T03:56:11.205Z,933.70
2019-03-17T03:57:11.099Z,933.66
2019-03-17T03:58:11.023Z,933.63
2019-03-17T03:59:10.895Z,933.69
2019-03-17T04:00:10.806Z,933.69
2019-03-17T04:01:10.692Z,933.66
2019-03-17T04:02:10.590Z,933.68
2019-03-17T04:03:10.490Z,933.67
2019-03-17T04:04:10.385Z,933.64
2019-03-17T04:05:10.313Z,933.69
2019-03-17T04:06:25.283Z,933.53
2019-03-17T04:07:10.084Z,933.55
2019-03-17T04:08:09.980Z,933.53
2019-03-17T04:09:09.887Z,933.57
2019-03-17T04:10:09.800Z,933.60
2019-03-17T04:11:09.684Z,933.45
2019-03-17T04:12:09.582Z,933.64
2019-03-17T04:13:09.481Z,933.55
2019-03-17T04:14:09.379Z,933.64
2019-03-17T04:15:09.293Z,933.55
2019-03-17T04:16:09.174Z,933.44
2019-03-17T04:17:09.076Z,933.40
2019-03-17T04:18:08.971Z,933.34
2019-03-17T04:19:08.872Z,933.49
2019-03-17T04:20:08.807Z,933.43
2019-03-17T04:21:08.671Z,933.51
2019-03-17T04:22:08.568Z,933.37
2019-03-17T04:23:08.475Z,933.43
2019-03-17T04:24:08.670Z,933.47
2019-03-17T04:25:08.306Z,933.36
2019-03-17T04:26:08.305Z,933.40
2019-03-17T04:27:08.082Z,933.44
2019-03-17T04:28:07.965Z,933.39
2019-03-17T04:29:07.864Z,933.26
2019-03-17T04:30:07.777Z,933.38
2019-03-17T04:31:07.767Z,933.32
2019-03-17T04:32:07.556Z,933.29
2019-03-17T04:33:07.459Z,933.24
2019-03-17T04:34:07.358Z,933.37
2019-03-17T04:35:07.260Z,933.33
2019-03-17T04:36:07.169Z,933.31
2019-03-17T04:37:07.049Z,933.37
2019-03-17T04:38:07.056Z,933.25
2019-03-17T04:39:06.850Z,933.27
2019-03-17T04:40:06.752Z,933.14
2019-03-17T04:41:06.665Z,933.18
2019-03-17T04:42:06.545Z,933.21
2019-03-17T04:43:06.444Z,933.20
2019-03-17T04:44:06.342Z,933.19
2019-03-17T04:45:06.356Z,933.12
2019-03-17T04:46:06.162Z,933.11
2019-03-17T04:47:06.051Z,933.14
2019-03-17T04:48:05.941Z,933.21
2019-03-17T04:49:05.837Z,933.16
2019-03-17T04:50:05.746Z,933.18
2019-03-17T04:51:05.654Z,933.23
2019-03-17T04:52:05.635Z,933.14
2019-03-17T04:53:05.436Z,933.16
2019-03-17T04:54:05.337Z,933.09
2019-03-17T04:55:05.247Z,933.06
2019-03-17T04:56:05.146Z,933.12
2019-03-17T04:57:05.032Z,933.13
2019-03-17T04:58:04.928Z,933.05
2019-03-17T04:59:04.940Z,933.11
2019-03-17T05:00:04.728Z,933.10
2019-03-17T05:01:04.642Z,933.04
2019-03-17T05:02:04.528Z,933.06
2019-03-17T05:03:04.426Z,933.18
2019-03-17T05:04:04.322Z,933.06
2019-03-17T05:05:04.219Z,932.99
2019-03-17T05:06:04.262Z,933.03
2019-03-17T05:07:04.022Z,933.09
2019-03-17T05:08:03.917Z,933.15
2019-03-17T05:09:03.818Z,932.96
2019-03-17T05:10:03.717Z,933.04
2019-03-17T05:11:03.629Z,932.96
2019-03-17T05:12:03.510Z,932.96
2019-03-17T05:13:03.514Z,933.03
2019-03-17T05:14:03.312Z,933.03
2019-03-17T05:15:03.213Z,932.94
2019-03-17T05:16:03.150Z,932.97
2019-03-17T05:17:03.007Z,932.96
2019-03-17T05:18:02.910Z,932.85
2019-03-17T05:19:02.802Z,933.02
2019-03-17T05:20:02.806Z,933.04
2019-03-17T05:21:02.616Z,932.97
2019-03-17T05:22:02.501Z,933.03
2019-03-17T05:23:02.400Z,932.98
2019-03-17T05:24:02.299Z,933.04
2019-03-17T05:25:02.209Z,933.03
2019-03-17T05:26:02.112Z,932.97
2019-03-17T05:27:01.994Z,932.99
2019-03-17T05:28:01.987Z,933.04
2019-03-17T05:29:01.787Z,933.06
2019-03-17T05:30:01.688Z,933.09
2019-03-17T05:31:01.609Z,933.06
2019-03-17T05:32:01.488Z,932.97
2019-03-17T05:33:01.384Z,932.96
2019-03-17T05:34:01.413Z,932.97
2019-03-17T05:35:01.180Z,932.93
2019-03-17T05:36:01.101Z,932.99
2019-03-17T05:37:06.224Z,932.88
2019-03-17T05:38:00.889Z,932.90
2019-03-17T05:39:00.776Z,932.88
2019-03-17T05:40:00.676Z,932.88
2019-03-17T05:41:00.590Z,932.87
2019-03-17T05:42:00.472Z,932.88
2019-03-17T05:43:00.372Z,932.80
2019-03-17T05:44:00.269Z,932.72
2019-03-17T05:45:00.377Z,932.88
2019-03-17T05:46:00.103Z,932.67
2019-03-17T05:46:59.970Z,932.71
2019-03-17T05:47:59.864Z,932.72
2019-03-17T05:48:59.762Z,932.87
2019-03-17T05:49:59.663Z,932.86
2019-03-17T05:50:59.578Z,932.85
2019-03-17T05:51:59.459Z,932.94
2019-03-17T05:52:59.360Z,932.95
2019-03-17T05:53:59.258Z,933.00
2019-03-17T05:54:59.161Z,932.96
2019-03-17T05:55:59.071Z,932.92
2019-03-17T05:56:58.952Z,932.92
2019-03-17T05:57:58.852Z,933.00
2019-03-17T05:58:58.750Z,932.90
2019-03-17T05:59:58.650Z,933.00
2019-03-17T06:00:58.568Z,933.06
2019-03-17T06:01:58.459Z,933.02
2019-03-17T06:02:58.350Z,933.04
2019-03-17T06:03:58.244Z,933.16
2019-03-17T06:04:58.145Z,932.98
2019-03-17T06:05:58.057Z,932.90
2019-03-17T06:06:57.942Z,933.08
2019-03-17T06:07:57.839Z,933.12
2019-03-17T06:08:57.744Z,932.99
2019-03-17T06:09:57.642Z,933.09
2019-03-17T06:10:57.554Z,933.13
2019-03-17T06:11:57.439Z,933.20
2019-03-17T06:12:57.343Z,933.33
2019-03-17T06:13:57.236Z,933.18
2019-03-17T06:14:57.134Z,933.24
2019-03-17T06:15:57.052Z,933.21
2019-03-17T06:16:56.947Z,933.24
2019-03-17T06:17:56.832Z,933.29
2019-03-17T06:18:56.731Z,933.39
2019-03-17T06:19:56.632Z,933.24
2019-03-17T06:20:56.531Z,933.29
2019-03-17T06:21:56.463Z,933.37
2019-03-17T06:22:56.338Z,933.42
2019-03-17T06:23:56.229Z,933.42
2019-03-17T06:24:56.132Z,933.39
2019-03-17T06:25:56.043Z,933.40
2019-03-17T06:26:55.950Z,933.42
2019-03-17T06:27:55.829Z,933.41
2019-03-17T06:28:55.731Z,933.44
2019-03-17T06:29:55.633Z,933.40
2019-03-17T06:30:55.535Z,933.50
2019-03-17T06:31:55.452Z,933.49
2019-03-17T06:32:55.333Z,933.47
2019-03-17T06:33:55.233Z,933.52
2019-03-17T06:34:55.136Z,933.64
2019-03-17T06:35:55.042Z,933.52
2019-03-17T06:36:54.954Z,933.59
2019-03-17T06:37:54.891Z,933.62
2019-03-17T06:38:54.744Z,933.59
2019-03-17T06:39:54.642Z,933.54
2019-03-17T06:40:54.547Z,933.58
2019-03-17T06:41:54.462Z,933.62
2019-03-17T06:42:54.348Z,933.69
2019-03-17T06:43:54.249Z,933.60
2019-03-17T06:44:54.151Z,933.51
2019-03-17T06:45:54.054Z,933.55
2019-03-17T06:46:53.970Z,933.50
2019-03-17T06:47:53.855Z,933.58
2019-03-17T06:48:53.760Z,933.65
2019-03-17T06:49:53.665Z,933.64
2019-03-17T06:50:53.567Z,933.68
2019-03-17T06:51:53.484Z,933.59
2019-03-17T06:52:53.737Z,933.68
2019-03-17T06:53:56.565Z,933.67
2019-03-17T06:54:53.177Z,933.69
2019-03-17T06:55:53.081Z,933.71
2019-03-17T06:56:53.107Z,933.78
2019-03-17T06:57:52.887Z,933.90
2019-03-17T06:58:52.789Z,933.84
2019-03-17T06:59:52.715Z,933.85
2019-03-17T07:00:52.596Z,933.76
2019-03-17T07:01:52.518Z,933.66
2019-03-17T07:02:52.406Z,933.75
2019-03-17T07:03:52.412Z,933.72
2019-03-17T07:04:54.001Z,933.81
2019-03-17T07:05:52.110Z,933.82
2019-03-17T07:06:52.055Z,933.93
2019-03-17T07:07:51.919Z,933.95
2019-03-17T07:08:51.817Z,933.89
2019-03-17T07:09:51.723Z,933.82
2019-03-17T07:10:51.763Z,933.85
2019-03-17T07:11:51.549Z,933.81
2019-03-17T07:12:51.435Z,933.94
2019-03-17T07:13:51.339Z,933.84
2019-03-17T07:14:51.245Z,933.85
2019-03-17T07:15:51.154Z,933.87
2019-03-17T07:16:51.068Z,933.89
2019-03-17T07:17:51.060Z,933.90
2019-03-17T07:18:50.862Z,933.94
2019-03-17T07:19:50.768Z,933.93
2019-03-17T07:20:50.670Z,933.90
2019-03-17T07:21:50.593Z,933.89
2019-03-17T07:22:50.478Z,933.81
2019-03-17T07:23:50.385Z,933.75
2019-03-17T07:24:50.394Z,933.93
2019-03-17T07:25:50.194Z,933.86
2019-03-17T07:26:50.116Z,933.85
2019-03-17T07:27:50.004Z,933.88
2019-03-17T07:28:49.910Z,933.83
2019-03-17T07:29:49.834Z,933.83
2019-03-17T07:30:49.722Z,933.73
2019-03-17T07:31:49.749Z,933.77
2019-03-17T07:32:49.533Z,933.81
2019-03-17T07:33:49.445Z,933.84
2019-03-17T07:34:49.339Z,933.84
2019-03-17T07:35:49.245Z,933.84
2019-03-17T07:36:49.169Z,933.77
2019-03-17T07:37:56.797Z,933.71
2019-03-17T07:38:49.069Z,933.89
2019-03-17T07:39:48.869Z,933.75
2019-03-17T07:40:48.776Z,933.61
2019-03-17T07:41:48.698Z,933.80
2019-03-17T07:42:48.587Z,933.80
2019-03-17T07:43:48.493Z,933.86
2019-03-17T07:44:48.409Z,933.72
2019-03-17T07:45:48.412Z,933.84
2019-03-17T07:46:48.231Z,933.76
2019-03-17T07:47:48.117Z,933.34
2019-03-17T07:48:48.026Z,933.49
2019-03-17T07:49:47.939Z,933.47
2019-03-17T07:50:47.837Z,933.53
2019-03-17T07:51:47.757Z,933.47
2019-03-17T07:52:47.753Z,933.69
2019-03-17T07:53:47.555Z,933.69
2019-03-17T07:54:47.464Z,933.73
2019-03-17T07:55:47.368Z,933.75
2019-03-17T07:56:47.288Z,933.72
2019-03-17T07:57:47.182Z,933.73
2019-03-17T07:58:47.085Z,933.69
2019-03-17T07:59:47.102Z,933.60
2019-03-17T08:00:46.900Z,933.52
2019-03-17T08:01:46.821Z,933.55
2019-03-17T08:02:46.713Z,933.51
2019-03-17T08:03:46.616Z,933.51
2019-03-17T08:04:46.530Z,933.55
2019-03-17T08:05:46.427Z,933.52
2019-03-17T08:06:46.443Z,933.51
2019-03-17T08:07:46.259Z,933.63
2019-03-17T08:08:46.283Z,933.52
2019-03-17T08:09:46.054Z,933.59
2019-03-17T08:10:45.958Z,933.50
2019-03-17T08:11:45.866Z,933.56
2019-03-17T08:12:45.891Z,933.55
2019-03-17T08:13:45.682Z,933.62
2019-03-17T08:14:45.586Z,933.58
2019-03-17T08:15:45.489Z,933.62
2019-03-17T08:16:45.398Z,933.66
2019-03-17T08:17:45.320Z,933.74
2019-03-17T08:18:45.211Z,933.64
2019-03-17T08:19:45.114Z,933.77
2019-03-17T08:20:45.020Z,933.76
2019-03-17T08:21:44.931Z,933.70
2019-03-17T08:22:44.853Z,933.72
2019-03-17T08:23:44.741Z,933.76
2019-03-17T08:24:44.655Z,933.75
2019-03-17T08:25:44.557Z,933.78
2019-03-17T08:26:44.463Z,933.68
2019-03-17T08:27:44.385Z,933.72
2019-03-17T08:28:44.282Z,933.76
2019-03-17T08:29:44.185Z,933.74
2019-03-17T08:30:53.227Z,933.78
2019-03-17T08:31:44.000Z,933.77
2019-03-17T08:32:43.925Z,933.79
2019-03-17T08:33:43.819Z,933.76
2019-03-17T08:34:43.729Z,933.81
2019-03-17T08:35:43.634Z,933.79
2019-03-17T08:36:43.543Z,933.72
2019-03-17T08:37:43.467Z,933.73
2019-03-17T08:38:43.365Z,933.75
2019-03-17T08:39:43.269Z,933.79
2019-03-17T08:40:43.179Z,933.82
2019-03-17T08:41:43.087Z,933.77
2019-03-17T08:42:43.017Z,933.75
2019-03-17T08:43:53.690Z,933.79
2019-03-17T08:44:42.820Z,933.89
2019-03-17T08:45:42.729Z,933.84
2019-03-17T08:46:42.636Z,933.76
2019-03-17T08:47:42.668Z,933.80
2019-03-17T08:48:42.460Z,933.74
2019-03-17T08:49:42.367Z,933.73
2019-03-17T08:50:42.278Z,933.84
2019-03-17T08:51:42.186Z,933.85
2019-03-17T08:52:42.117Z,933.73
2019-03-17T08:53:42.009Z,933.79
2019-03-17T08:54:42.028Z,933.81
2019-03-17T08:55:41.830Z,933.79
2019-03-17T08:56:41.741Z,933.82
2019-03-17T08:57:41.669Z,933.76
2019-03-17T08:58:41.559Z,933.69
2019-03-17T08:59:41.468Z,933.76
2019-03-17T09:00:41.379Z,933.71
2019-03-17T09:01:41.393Z,933.65
2019-03-17T09:02:41.220Z,933.58
2019-03-17T09:03:41.110Z,933.55
2019-03-17T09:04:41.025Z,933.55
2019-03-17T09:05:41.017Z,933.57
2019-03-17T09:06:40.850Z,933.69
2019-03-17T09:07:40.766Z,933.60
2019-03-17T09:08:40.657Z,933.63
2019-03-17T09:09:40.569Z,933.68
2019-03-17T09:10:40.485Z,933.64
2019-03-17T09:11:40.388Z,933.54
2019-03-17T09:12:40.319Z,933.55
2019-03-17T09:13:40.212Z,933.65
2019-03-17T09:14:40.120Z,933.56
2019-03-17T09:15:40.029Z,933.61
2019-03-17T09:16:39.964Z,933.53
2019-03-17T09:17:39.879Z,933.69
2019-03-17T09:18:39.756Z,933.65
2019-03-17T09:19:39.672Z,933.63
2019-03-17T09:20:39.582Z,933.75
2019-03-17T09:21:39.489Z,933.74
2019-03-17T09:22:39.414Z,933.72
2019-03-17T09:23:42.417Z,933.57
2019-03-17T09:24:39.214Z,933.84
2019-03-17T09:25:39.131Z,933.70
2019-03-17T09:26:39.036Z,933.76
2019-03-17T09:27:39.021Z,933.77
2019-03-17T09:28:38.860Z,933.83
2019-03-17T09:29:38.769Z,933.81
2019-03-17T09:30:38.679Z,933.72
2019-03-17T09:31:38.590Z,933.75
2019-03-17T09:32:38.517Z,933.51
2019-03-17T09:33:38.412Z,933.64
2019-03-17T09:34:38.321Z,933.73
2019-03-17T09:35:38.233Z,933.67
2019-03-17T09:36:38.143Z,933.62
2019-03-17T09:37:38.074Z,933.40
2019-03-17T09:38:46.623Z,933.59
2019-03-17T09:39:37.878Z,933.53
2019-03-17T09:40:37.792Z,933.57
2019-03-17T09:41:37.700Z,933.58
2019-03-17T09:42:37.632Z,933.55
2019-03-17T09:43:37.524Z,933.55
2019-03-17T09:44:37.437Z,933.69
2019-03-17T09:45:37.346Z,933.63
2019-03-17T09:46:37.262Z,933.67
2019-03-17T09:47:37.188Z,933.84
2019-03-17T09:48:37.082Z,933.59
2019-03-17T09:49:36.997Z,933.57
2019-03-17T09:50:36.910Z,933.69
2019-03-17T09:51:36.821Z,933.60
2019-03-17T09:52:36.748Z,933.47
2019-03-17T09:53:36.646Z,933.58
2019-03-17T09:54:36.563Z,933.66
2019-03-17T09:55:36.474Z,933.62
2019-03-17T09:56:36.385Z,933.64
2019-03-17T09:57:36.297Z,933.63
2019-03-17T09:58:36.226Z,933.69
2019-03-17T09:59:36.126Z,933.67
2019-03-17T10:00:36.031Z,933.59
2019-03-17T10:01:35.946Z,933.43
2019-03-17T10:02:35.877Z,933.70
2019-03-17T10:03:35.784Z,933.71
2019-03-17T10:04:35.680Z,933.75
2019-03-17T10:05:35.904Z,933.73
2019-03-17T10:06:35.505Z,933.76
2019-03-17T10:07:36.906Z,933.65
2019-03-17T10:08:35.346Z,933.82
2019-03-17T10:09:35.242Z,933.68
2019-03-17T10:10:35.158Z,933.66
2019-03-17T10:11:35.068Z,933.70
2019-03-17T10:12:34.983Z,933.67
2019-03-17T10:13:34.912Z,933.74
2019-03-17T10:14:34.821Z,933.61
2019-03-17T10:15:34.721Z,933.74
2019-03-17T10:16:34.765Z,933.78
2019-03-17T10:17:34.546Z,933.81
2019-03-17T10:18:34.473Z,933.80
2019-03-17T10:19:34.369Z,933.87
2019-03-17T10:20:34.282Z,933.76
2019-03-17T10:21:34.197Z,933.66
2019-03-17T10:22:34.108Z,933.85
2019-03-17T10:23:34.042Z,933.91
2019-03-17T10:24:33.937Z,933.81
2019-03-17T10:25:33.853Z,933.73
2019-03-17T10:26:33.762Z,933.83
2019-03-17T10:27:33.678Z,933.84
2019-03-17T10:28:35.111Z,933.71
2019-03-17T10:29:33.499Z,933.95
2019-03-17T10:30:33.413Z,933.96
2019-03-17T10:31:33.322Z,933.88
2019-03-17T10:32:33.236Z,933.72
2019-03-17T10:33:33.183Z,933.90
2019-03-17T10:34:33.065Z,933.88
2019-03-17T10:35:32.973Z,933.91
2019-03-17T10:36:32.885Z,933.88
2019-03-17T10:37:32.801Z,933.88
2019-03-17T10:38:32.731Z,933.92
2019-03-17T10:39:32.622Z,933.94
2019-03-17T10:40:32.534Z,933.72
2019-03-17T10:41:32.448Z,933.96
2019-03-17T10:42:34.180Z,933.97
2019-03-17T10:43:32.288Z,934.18
2019-03-17T10:44:32.304Z,934.18
2019-03-17T10:45:32.099Z,934.08
2019-03-17T10:46:32.011Z,933.96
2019-03-17T10:47:31.925Z,934.15
2019-03-17T10:48:31.852Z,934.14
2019-03-17T10:49:31.750Z,933.97
2019-03-17T10:50:31.661Z,933.97
2019-03-17T10:51:31.680Z,934.15
2019-03-17T10:52:31.496Z,934.37
2019-03-17T10:53:31.415Z,934.45
2019-03-17T10:54:31.315Z,934.28
2019-03-17T10:55:31.229Z,934.28
2019-03-17T10:56:31.136Z,934.49
2019-03-17T10:57:31.050Z,934.58
2019-03-17T10:58:31.085Z,934.48
2019-03-17T10:59:30.878Z,934.28
2019-03-17T11:00:30.791Z,934.53
2019-03-17T11:01:30.700Z,934.99
2019-03-17T11:02:30.613Z,935.01
2019-03-17T11:03:30.550Z,934.94
2019-03-17T11:04:30.440Z,935.01
2019-03-17T11:05:30.477Z,934.86
2019-03-17T11:06:30.268Z,934.73
2019-03-17T11:07:30.179Z,934.61
2019-03-17T11:08:30.111Z,934.55
2019-03-17T11:09:30.013Z,934.45
2019-03-17T11:10:29.924Z,934.66
2019-03-17T11:11:29.836Z,934.58
2019-03-17T11:12:29.750Z,934.23
2019-03-17T11:13:29.680Z,934.33
2019-03-17T11:14:29.578Z,934.46
2019-03-17T11:15:29.493Z,934.77
2019-03-17T11:16:29.406Z,934.92
2019-03-17T11:17:29.319Z,934.95
2019-03-17T11:18:29.255Z,935.04
2019-03-17T11:19:29.249Z,935.00
2019-03-17T11:20:29.065Z,934.91
2019-03-17T11:21:28.977Z,934.98
2019-03-17T11:22:28.907Z,935.04
2019-03-17T11:23:28.823Z,934.76
2019-03-17T11:24:28.723Z,934.91
2019-03-17T11:25:28.765Z,934.79
2019-03-17T11:26:28.552Z,934.71
2019-03-17T11:27:28.466Z,934.42
2019-03-17T11:28:28.396Z,934.54
2019-03-17T11:29:28.296Z,934.37
2019-03-17T11:30:28.208Z,934.28
2019-03-17T11:31:28.123Z,934.11
2019-03-17T11:32:28.038Z,934.47
2019-03-17T11:33:28.001Z,934.35
2019-03-17T11:34:27.867Z,933.93
2019-03-17T11:35:27.782Z,934.14
2019-03-17T11:36:27.694Z,934.29
2019-03-17T11:37:27.607Z,934.22
2019-03-17T11:38:27.524Z,934.06
2019-03-17T11:39:37.201Z,933.93
2019-03-17T11:40:27.348Z,933.98
2019-03-17T11:41:27.262Z,933.99
2019-03-17T11:42:27.177Z,933.88
2019-03-17T11:43:27.089Z,933.97
2019-03-17T11:44:27.018Z,933.88
2019-03-17T11:45:26.922Z,933.78
2019-03-17T11:46:26.831Z,933.60
2019-03-17T11:47:26.745Z,933.64
2019-03-17T11:48:26.662Z,933.60
2019-03-17T11:49:26.593Z,933.55
2019-03-17T11:50:26.488Z,933.47
2019-03-17T11:51:26.396Z,933.56
2019-03-17T11:52:26.312Z,933.38
2019-03-17T11:53:26.243Z,933.42
2019-03-17T11:54:26.157Z,933.37
2019-03-17T11:55:26.052Z,933.43
2019-03-17T11:56:25.965Z,933.38
2019-03-17T11:57:25.879Z,933.35
2019-03-17T11:58:25.798Z,933.20
2019-03-17T11:59:25.726Z,933.19
2019-03-17T12:00:25.624Z,933.08
2019-03-17T12:01:25.538Z,933.12
2019-03-17T12:02:26.697Z,933.10
2019-03-17T12:03:25.373Z,933.20
2019-03-17T12:04:25.295Z,933.02
2019-03-17T12:05:25.192Z,933.22
2019-03-17T12:06:25.103Z,933.06
2019-03-17T12:07:25.017Z,932.92
2019-03-17T12:08:24.933Z,932.91
2019-03-17T12:09:29.188Z,933.07
2019-03-17T12:10:24.758Z,933.05
2019-03-17T12:11:24.676Z,933.07
2019-03-17T12:12:24.584Z,933.12
2019-03-17T12:13:24.503Z,933.05
2019-03-17T12:14:24.431Z,933.10
2019-03-17T12:15:24.340Z,933.11
2019-03-17T12:16:24.240Z,933.16
2019-03-17T12:17:24.152Z,933.14
2019-03-17T12:18:24.066Z,933.19
2019-03-17T12:19:23.995Z,933.13
2019-03-17T12:20:23.895Z,933.24
2019-03-17T12:21:23.883Z,933.23
2019-03-17T12:22:23.728Z,932.96
2019-03-17T12:23:23.635Z,932.85
2019-03-17T12:24:23.565Z,933.04
2019-03-17T12:25:23.468Z,932.94
2019-03-17T12:26:23.377Z,932.83
2019-03-17T12:27:23.290Z,932.93